Time;durP1;ratioP1;P1;durP2;ratioP2;P2;SDS_P1;SDS_P2;PMS_P1;PMS_P2;Temp;Humidity;BMP_temperature;BMP_pressure;BME280_temperature;BME280_humidity;BME280_pressure;Samples;Min_cycle;Max_cycle;Signal;HPM_P1;HPM_P2
2022/12/07 00:02:16;;;;;;;5.13;2.30;;;;;;;8.45;81.87;101060.56;4967796;28;19968;-91
2022/12/07 00:04:44;;;;;;;9.45;3.58;;;;;;;8.61;81.99;101095.75;4988252;28;20049;-90
2022/12/07 00:07:13;;;;;;;6.97;3.50;;;;;;;8.67;82.05;101105.06;5003340;28;20182;-92
2022/12/07 00:09:38;;;;;;;6.53;3.33;;;;;;;8.52;82.04;101085.00;4991534;28;20045;-90
2022/12/07 00:12:06;;;;;;;;;;;;;;;8.70;81.91;101120.03;4998278;28;20029;-91
2022/12/07 00:14:42;;;;;;;8.45;4.28;;;;;;;8.37;82.14;101076.47;5000823;28;19920;-92
2022/12/07 00:17:11;;;;;;;10.75;4.70;;;;;;;8.57;82.10;101121.13;5006380;28;20100;-91
2022/12/07 00:19:36;;;;;;;10.30;4.05;;;;;;;8.24;82.33;101082.94;5007000;28;20072;-91
2022/12/07 00:22:04;;;;;;;8.48;3.08;;;;;;;8.29;82.58;101097.72;5013146;28;20027;-91
2022/12/07 00:24:33;;;;;;;5.70;3.25;;;;;;;8.45;83.18;101127.56;4999613;28;20054;-91
2022/12/07 00:27:00;;;;;;;8.60;3.40;;;;;;;8.24;82.98;101099.00;5000173;28;20037;-91
2022/12/07 00:29:28;;;;;;;6.20;2.88;;;;;;;8.25;82.62;101091.81;5004762;28;20109;-91
2022/12/07 00:31:57;;;;;;;4.70;2.88;;;;;;;8.42;82.60;101122.50;4975332;28;20053;-91
2022/12/07 00:34:24;;;;;;;5.55;2.83;;;;;;;8.38;82.89;101115.66;4964934;28;20038;-92
2022/12/07 00:36:49;;;;;;;5.63;2.80;;;;;;;8.35;82.95;101123.97;4979141;28;20045;-90
2022/12/07 00:39:15;;;;;;;4.80;2.60;;;;;;;8.19;82.80;101079.81;4959151;28;20072;-91
2022/12/07 00:41:42;;;;;;;4.07;2.47;;;;;;;8.44;82.59;101126.72;4961335;28;20045;-91
2022/12/07 00:44:09;;;;;;;5.63;2.63;;;;;;;8.34;82.35;101084.78;4978187;28;20046;-90
2022/12/07 00:46:35;;;;;;;6.22;3.13;;;;;;;8.38;82.27;101079.03;4962274;28;20116;-91
2022/12/07 00:49:03;;;;;;;5.22;2.60;;;;;;;8.56;81.71;101089.09;4988067;28;20054;-91
2022/12/07 00:51:29;;;;;;;7.72;2.80;;;;;;;8.59;81.53;101100.41;4966141;28;20491;-91
2022/12/07 00:53:56;;;;;;;;;;;;;;;8.73;81.85;101123.28;4966657;28;20418;-90
2022/12/07 00:56:26;;;;;;;6.30;2.63;;;;;;;8.60;81.88;101118.19;4971365;28;19988;-90
2022/12/07 00:59:01;;;;;;;3.97;2.58;;;;;;;8.53;81.49;101092.91;4978361;28;20045;-90
2022/12/07 01:01:33;;;;;;;3.90;2.50;;;;;;;8.57;81.63;101099.69;4969334;28;20041;-92
2022/12/07 01:04:02;;;;;;;5.13;2.65;;;;;;;8.69;81.29;101107.63;4984188;28;20122;-92
2022/12/07 01:06:28;;;;;;;8.38;3.03;;;;;;;8.50;81.22;101071.75;4981842;28;20175;-89
2022/12/07 01:08:56;;;;;;;9.15;3.03;;;;;;;8.73;80.92;101103.66;4954596;28;20033;-90
2022/12/07 01:11:24;;;;;;;4.32;2.50;;;;;;;8.56;80.92;101079.22;5001603;28;20049;-93
2022/12/07 01:13:54;;;;;;;5.78;3.00;;;;;;;8.60;80.99;101074.47;4961894;28;20220;-89
2022/12/07 01:16:20;;;;;;;6.07;2.90;;;;;;;8.43;80.68;101041.13;4971357;28;20042;-90
2022/12/07 01:18:49;;;;;;;5.85;3.00;;;;;;;8.69;80.46;101070.94;4968778;28;20128;-91
2022/12/07 01:21:17;;;;;;;4.75;2.78;;;;;;;8.66;80.28;101056.00;4993339;28;20073;-91
2022/12/07 01:23:44;;;;;;;5.40;2.90;;;;;;;8.80;79.65;101070.81;4965777;28;20053;-89
2022/12/07 01:26:23;;;;;;;5.25;2.63;;;;;;;8.62;79.70;101046.53;4967317;28;20038;-91
2022/12/07 01:28:49;;;;;;;3.97;2.63;;;;;;;8.60;80.01;101061.06;4980800;28;20554;-92
2022/12/07 01:31:17;;;;;;;5.93;2.78;;;;;;;8.59;80.09;101060.22;4971765;28;20133;-92
2022/12/07 01:33:44;;;;;;;5.20;2.50;;;;;;;8.50;80.28;101038.72;4991085;28;20065;-92
2022/12/07 01:36:15;;;;;;;4.80;2.70;;;;;;;8.55;80.27;101056.09;4995026;28;20080;-91
2022/12/07 01:38:42;;;;;;;7.18;2.95;;;;;;;8.48;80.52;101044.25;5003636;28;20141;-92
2022/12/07 01:41:10;;;;;;;;;;;;;;;8.68;80.53;101063.03;5006949;28;21282;-89
2022/12/07 01:43:35;;;;;;;5.82;2.78;;;;;;;8.43;80.64;101027.75;5012209;28;19929;-91
2022/12/07 01:46:10;;;;;;;6.45;2.78;;;;;;;8.54;80.81;101053.56;4960112;28;20048;-90
2022/12/07 01:48:39;;;;;;;6.38;2.53;;;;;;;8.50;81.22;101050.31;4960602;28;20046;-91
2022/12/07 01:51:12;;;;;;;4.25;2.45;;;;;;;8.43;80.58;101025.06;4973676;28;20119;-90
2022/12/07 01:53:43;;;;;;;4.53;2.80;;;;;;;8.42;80.83;101032.22;4998381;28;20556;-92
2022/12/07 01:56:19;;;;;;;5.43;2.60;;;;;;;8.44;80.90;101032.94;4989875;28;20049;-93
2022/12/07 01:58:44;;;;;;;6.40;2.90;;;;;;;8.49;81.00;101023.66;5005674;28;20767;-91
2022/12/07 02:01:17;;;;;;;5.10;2.75;;;;;;;8.49;80.72;101020.97;4974277;28;20045;-91
2022/12/07 02:03:43;;;;;;;4.60;2.50;;;;;;;8.65;80.90;101046.25;4982090;28;20415;-92
2022/12/07 02:06:12;;;;;;;6.68;2.80;;;;;;;8.49;81.00;101020.97;4975414;28;20098;-90
2022/12/07 02:08:45;;;;;;;4.20;2.42;;;;;;;8.55;80.52;101023.94;4979114;28;20082;-91
2022/12/07 02:11:12;;;;;;;4.88;2.63;;;;;;;8.60;80.67;101037.78;4967562;28;20450;-92
2022/12/07 02:13:42;;;;;;;5.93;2.90;;;;;;;8.64;80.46;101031.16;4997379;28;20403;-90
2022/12/07 02:16:45;;;;;;;7.15;3.22;;;;;;;8.84;80.29;101047.25;4982332;28;20041;-91
2022/12/07 02:19:32;;;;;;;5.05;3.20;;;;;;;8.79;80.43;101052.19;4994241;28;20046;-91
2022/12/07 02:22:20;;;;;;;6.53;3.22;;;;;;;8.79;80.62;101057.56;4976771;28;20124;-91
2022/12/07 02:25:18;;;;;;;5.68;3.20;;;;;;;8.68;80.31;101031.72;5000399;28;20046;-88
2022/12/07 02:28:01;;;;;;;;;;;;;;;8.91;79.71;101051.06;4970910;28;20427;-90
2022/12/07 02:30:28;;;;;;;7.75;4.22;;;;;;;8.70;79.85;101044.97;4977231;28;19909;-92
2022/12/07 02:33:00;;;;;;;7.07;4.38;;;;;;;8.72;79.74;101056.41;4947010;28;20037;-92
2022/12/07 02:35:32;;;;;;;7.35;4.50;;;;;;;8.60;79.80;101047.66;4961463;28;20164;-91
2022/12/07 02:38:00;;;;;;;7.50;4.47;;;;;;;8.58;79.39;101037.06;4960924;28;20057;-91
2022/12/07 02:40:52;;;;;;;9.50;4.78;;;;;;;8.49;79.57;101026.31;4959633;28;20125;-90
2022/12/07 02:43:43;;;;;;;7.50;4.80;;;;;;;8.68;79.33;101052.31;4975821;28;20172;-90
2022/12/07 02:46:20;;;;;;;8.52;4.50;;;;;;;8.36;79.47;101016.69;4977448;28;20041;-92
2022/12/07 02:48:47;;;;;;;7.47;4.82;;;;;;;8.38;79.51;101019.22;4975760;28;20042;-90
2022/12/07 02:51:14;;;;;;;8.13;3.92;;;;;;;8.26;79.48;101013.13;4974356;28;20049;-90
2022/12/07 02:53:44;;;;;;;10.43;4.82;;;;;;;8.32;79.86;101027.81;4975379;28;20044;-91
2022/12/07 02:56:53;;;;;;;7.03;4.40;;;;;;;8.09;79.86;101005.75;4996797;28;20030;-92
2022/12/07 02:59:49;;;;;;;8.65;5.22;;;;;;;8.44;79.85;101048.19;4960500;28;20056;-88
2022/12/07 03:02:14;;;;;;;9.63;5.05;;;;;;;8.35;79.92;101052.50;4982950;28;20049;-91
2022/12/07 03:04:54;;;;;;;8.65;5.38;;;;;;;8.11;80.03;101017.19;4987325;28;20038;-91
2022/12/07 03:07:28;;;;;;;11.27;5.60;;;;;;;8.01;80.65;101017.16;4962205;28;20116;-91
2022/12/07 03:10:10;;;;;;;10.43;5.40;;;;;;;7.97;80.43;100994.31;4990898;28;20057;-90
2022/12/07 03:13:03;;;;;;;8.27;5.47;;;;;;;8.25;80.62;101047.09;4986129;28;20561;-89
2022/12/07 03:15:46;;;;;;;10.68;5.45;;;;;;;8.07;80.08;101003.22;4966914;28;20038;-89
2022/12/07 03:18:13;;;;;;;10.95;5.85;;;;;;;8.02;80.66;101003.63;4967938;28;20050;-89
2022/12/07 03:20:59;;;;;;;;;;;;;;;8.24;80.31;101037.38;4970957;28;20038;-89
2022/12/07 03:23:26;;;;;;;8.98;4.88;;;;;;;7.94;80.28;101002.63;4997045;28;19981;-90
2022/12/07 03:25:56;;;;;;;9.30;6.00;;;;;;;8.01;80.84;101030.56;4975810;28;20054;-90
2022/12/07 03:28:24;;;;;;;11.13;6.03;;;;;;;8.04;81.33;101043.66;4975385;28;20046;-91
2022/12/07 03:31:06;;;;;;;9.15;6.00;;;;;;;8.02;81.08;101025.03;5000807;28;20049;-91
2022/12/07 03:33:39;;;;;;;10.65;6.35;;;;;;;7.91;81.24;101008.22;4978904;28;20125;-90
2022/12/07 03:36:33;;;;;;;12.35;6.30;;;;;;;7.96;81.02;101028.28;4967933;28;20046;-90
2022/12/07 03:39:11;;;;;;;8.85;6.03;;;;;;;8.04;80.72;101022.22;4983855;28;20034;-91
2022/12/07 03:41:38;;;;;;;11.73;6.30;;;;;;;7.92;80.59;100999.22;4983059;28;20054;-89
2022/12/07 03:44:04;;;;;;;10.30;6.13;;;;;;;7.87;80.87;100993.44;4987542;28;20043;-91
2022/12/07 03:46:51;;;;;;;10.20;6.50;;;;;;;8.04;80.51;101032.94;4983458;28;20038;-88
2022/12/07 03:49:23;;;;;;;10.15;6.15;;;;;;;8.12;80.26;101032.25;4986824;28;20116;-87
2022/12/07 03:52:16;;;;;;;9.05;5.55;;;;;;;8.02;80.23;101014.31;4981885;28;20360;-90
2022/12/07 03:55:01;;;;;;;9.60;5.57;;;;;;;8.06;80.45;101027.47;4935815;28;20137;-88
2022/12/07 03:57:28;;;;;;;10.68;6.40;;;;;;;7.93;80.57;101031.19;4985355;28;20133;-89
2022/12/07 03:59:55;;;;;;;9.95;6.47;;;;;;;7.81;80.72;101000.16;4985367;28;20116;-90
2022/12/07 04:02:21;;;;;;;11.10;6.35;;;;;;;8.03;80.33;101036.63;4995705;28;20037;-89
2022/12/07 04:04:47;;;;;;;10.50;6.10;;;;;;;7.76;80.32;100997.88;4972784;28;20470;-89
2022/12/07 04:07:12;;;;;;;14.90;6.68;;;;;;;7.76;80.54;101003.25;4992271;28;20038;-88
2022/12/07 04:09:39;;;;;;;14.65;6.53;;;;;;;7.88;80.48;101013.84;5003902;28;20045;-87
2022/12/07 04:12:06;;;;;;;11.80;6.93;;;;;;;7.96;80.42;101025.59;5023831;28;20048;-87
2022/12/07 04:14:31;;;;;;;10.48;6.95;;;;;;;7.97;80.65;101029.13;4987551;28;20056;-90
2022/12/07 04:16:58;;;;;;;11.63;6.80;;;;;;;7.92;80.71;101028.69;4985827;28;21389;-90
2022/12/07 04:19:24;;;;;;;;;;;;;;;7.96;80.73;101024.72;4992989;28;20057;-87
2022/12/07 04:21:55;;;;;;;12.00;6.90;;;;;;;7.75;80.63;101004.22;4977943;28;19944;-87
2022/12/07 04:24:23;;;;;;;12.13;6.43;;;;;;;7.67;81.35;100997.84;4981457;28;20046;-88
2022/12/07 04:26:49;;;;;;;;;;;;;;;7.79;81.35;101024.38;4993989;28;20038;-88
2022/12/07 04:29:15;;;;;;;12.95;7.00;;;;;;;7.64;80.88;100982.06;4995291;28;20085;-88
2022/12/07 04:31:41;;;;;;;9.13;6.45;;;;;;;7.69;80.74;100983.34;4977072;28;20050;-88
2022/12/07 04:34:07;;;;;;;12.32;7.13;;;;;;;7.67;80.26;100981.78;4960650;28;20363;-88
2022/12/07 04:36:32;;;;;;;16.60;7.32;;;;;;;7.69;80.48;100998.56;4978491;28;20497;-88
2022/12/07 04:38:58;;;;;;;11.75;7.25;;;;;;;7.53;80.64;100980.31;4978300;28;20108;-87
2022/12/07 04:41:28;;;;;;;13.32;8.00;;;;;;;7.43;80.94;100979.44;4974657;28;20077;-89
2022/12/07 04:43:55;;;;;;;12.25;7.93;;;;;;;7.45;81.08;100972.13;4971906;28;20033;-89
2022/12/07 04:46:23;;;;;;;15.10;7.88;;;;;;;7.56;81.20;100998.78;4984989;28;20037;-88
2022/12/07 04:48:49;;;;;;;16.05;8.50;;;;;;;7.51;81.29;100987.63;4989892;28;20374;-88
2022/12/07 04:51:18;;;;;;;17.42;8.30;;;;;;;7.58;81.41;101002.16;5002822;28;20169;-90
2022/12/07 04:53:47;;;;;;;16.48;8.80;;;;;;;7.68;81.34;101016.47;4987218;28;20046;-88
2022/12/07 04:56:14;;;;;;;14.68;7.82;;;;;;;7.55;81.25;100994.41;4983653;28;20034;-89
2022/12/07 04:58:41;;;;;;;;;;;;;;;7.73;81.60;101019.56;4955661;28;20034;-92
2022/12/07 05:01:07;;;;;;;12.73;7.55;;;;;;;7.54;81.27;100998.09;4975416;28;20051;-89
2022/12/07 05:03:35;;;;;;;14.23;8.52;;;;;;;7.50;81.49;100993.97;4985341;28;20053;-88
2022/12/07 05:06:05;;;;;;;12.07;7.22;;;;;;;7.48;81.32;100988.75;4972091;28;20117;-90
2022/12/07 05:08:32;;;;;;;13.10;8.15;;;;;;;7.50;81.42;100996.66;4978697;28;20049;-90
2022/12/07 05:11:00;;;;;;;16.55;8.88;;;;;;;7.61;81.33;101015.28;4965052;28;20037;-91
2022/12/07 05:13:26;;;;;;;17.23;9.07;;;;;;;7.50;81.22;100991.28;4966477;28;20030;-89
2022/12/07 05:15:52;;;;;;;23.48;11.50;;;;;;;7.40;81.18;100980.53;4966030;28;20086;-90
2022/12/07 05:18:18;;;;;;;23.75;13.35;;;;;;;7.35;80.77;100983.63;4989537;28;20042;-91
2022/12/07 05:20:47;;;;;;;23.50;13.32;;;;;;;7.53;80.77;101032.00;5005534;28;20037;-90
2022/12/07 05:23:12;;;;;;;26.33;13.05;;;;;;;7.32;80.76;101005.25;4995286;28;20041;-92
2022/12/07 05:25:41;;;;;;;41.70;21.38;;;;;;;7.25;80.94;101009.44;4986180;28;20057;-91
2022/12/07 05:28:09;;;;;;;31.13;17.67;;;;;;;7.40;80.92;101040.25;4970960;28;20040;-91
2022/12/07 05:30:34;;;;;;;33.83;17.27;;;;;;;7.08;81.15;100994.00;4985151;28;20046;-90
2022/12/07 05:33:02;;;;;;;36.03;18.20;;;;;;;7.08;80.95;101007.38;4985836;28;20045;-90
2022/12/07 05:35:30;;;;;;;34.25;18.55;;;;;;;7.20;81.21;101019.69;4973801;28;20035;-89
2022/12/07 05:37:56;;;;;;;38.97;19.08;;;;;;;7.11;80.65;101001.75;4990919;28;20042;-89
2022/12/07 05:40:24;;;;;;;29.25;18.48;;;;;;;7.05;80.99;100991.59;4988876;28;20042;-90
2022/12/07 05:42:50;;;;;;;33.53;18.85;;;;;;;7.10;81.28;101011.59;4989846;28;20064;-91
2022/12/07 05:45:17;;;;;;;25.80;14.57;;;;;;;7.06;81.15;100993.28;4994984;28;20428;-89
2022/12/07 05:47:46;;;;;;;36.58;16.95;;;;;;;7.06;81.30;100999.47;4986833;28;20088;-92
2022/12/07 05:50:14;;;;;;;32.53;15.57;;;;;;;7.08;81.88;101002.00;4996798;28;20069;-91
2022/12/07 05:52:40;;;;;;;34.17;16.15;;;;;;;7.21;81.81;101008.03;4988471;28;20121;-90
2022/12/07 05:55:08;;;;;;;31.42;17.65;;;;;;;7.21;81.52;100997.31;4974030;28;20510;-89
2022/12/07 05:59:22;;;;;;;35.30;18.40;;;;;;;7.36;81.51;101022.75;4984090;28;20034;-91
2022/12/07 06:00:29;;;;;;;27.50;16.67;;;;;;;7.28;81.35;100997.63;4985207;28;20041;-90
2022/12/07 06:02:54;;;;;;;;;;;;;;;7.56;80.79;101028.19;5001620;28;20034;-90
2022/12/07 06:05:22;;;;;;;39.33;16.52;;;;;;;7.26;80.81;100989.75;4968230;28;20024;-89
2022/12/07 06:07:50;;;;;;;35.88;18.70;;;;;;;7.25;80.98;100993.38;5006348;28;20076;-91
2022/12/07 06:10:16;;;;;;;35.75;19.90;;;;;;;7.28;80.63;100986.94;4987074;28;20042;-91
2022/12/07 06:12:46;;;;;;;36.25;19.23;;;;;;;7.37;80.32;101008.41;4985957;28;20079;-91
2022/12/07 06:15:15;;;;;;;39.83;20.63;;;;;;;7.60;80.44;101035.00;5005143;28;20038;-91
2022/12/07 06:18:05;;;;;;;38.15;18.70;;;;;;;7.62;80.14;101025.00;4967813;28;20033;-94
2022/12/07 06:20:34;;;;;;;40.72;18.38;;;;;;;7.66;80.03;101034.47;5003951;28;20121;-89
2022/12/07 06:23:01;;;;;;;37.92;20.08;;;;;;;7.58;79.99;101015.53;4995755;28;20038;-89
2022/12/07 06:25:27;;;;;;;44.58;21.80;;;;;;;7.58;79.90;101008.34;5004821;28;20034;-88
2022/12/07 06:27:55;;;;;;;42.00;20.67;;;;;;;7.53;79.79;100997.22;5003438;28;20317;-90
2022/12/07 06:30:21;;;;;;;46.63;20.35;;;;;;;7.54;79.58;100987.38;5013382;28;20069;-89
2022/12/07 06:32:47;;;;;;;38.03;19.42;;;;;;;7.94;79.43;101032.06;4997120;28;20046;-88
2022/12/07 06:35:12;;;;;;;40.55;21.10;;;;;;;7.96;79.40;101019.38;5006097;28;20101;-88
2022/12/07 06:37:39;;;;;;;38.50;17.95;;;;;;;7.91;79.03;100998.34;4979548;28;20048;-88
2022/12/07 06:40:06;;;;;;;30.95;16.00;;;;;;;8.23;77.94;101027.63;5003699;28;20123;-88
2022/12/07 06:42:31;;;;;;;;;;;;;;;8.38;77.99;101029.94;4972465;28;20087;-88
2022/12/07 06:44:59;;;;;;;27.27;14.40;;;;;;;8.33;77.99;101030.34;5003703;28;19943;-90
2022/12/07 06:47:30;;;;;;;32.35;16.08;;;;;;;8.36;78.04;101027.41;5002053;28;20034;-90
2022/12/07 06:50:07;;;;;;;33.17;17.17;;;;;;;8.32;78.20;101007.22;5022509;28;20152;-91
2022/12/07 06:52:33;;;;;;;29.85;17.77;;;;;;;8.34;77.59;101001.75;5000579;28;20042;-89
2022/12/07 06:55:00;;;;;;;28.42;17.58;;;;;;;8.54;76.90;101008.84;4975690;28;20037;-90
2022/12/07 06:57:27;;;;;;;35.42;19.35;;;;;;;8.92;76.34;101039.38;5004967;28;20100;-89
2022/12/07 06:59:53;;;;;;;31.38;17.10;;;;;;;8.85;75.85;100998.00;5001625;28;20030;-87
2022/12/07 07:02:19;;;;;;;28.75;17.60;;;;;;;9.13;75.30;101015.06;4979327;28;20125;-88
2022/12/07 07:04:45;;;;;;;29.60;17.45;;;;;;;9.34;74.93;101011.34;4985527;28;20037;-89
2022/12/07 07:07:11;;;;;;;30.35;18.60;;;;;;;9.63;73.54;101005.91;5004238;28;20424;-88
2022/12/07 07:09:36;;;;;;;;;;;;;;;10.50;71.47;101034.22;5001624;28;20042;-87
2022/12/07 07:12:05;;;;;;;41.67;19.50;;;;;;;11.26;68.76;101000.63;4983750;28;19925;-90
2022/12/07 07:14:32;;;;;;;47.25;23.25;;;;;;;12.56;65.39;101013.06;5001932;28;20145;-89
2022/12/07 07:17:01;;;;;;;36.85;21.23;;;;;;;13.85;60.71;100998.84;5002374;28;20048;-89
2022/12/07 07:19:29;;;;;;;29.27;13.85;;;;;;;15.20;56.59;101026.47;4997686;28;20038;-87
2022/12/07 07:21:55;;;;;;;22.60;11.98;;;;;;;15.79;53.06;101013.06;4986558;28;20034;-88
2022/12/07 07:24:21;;;;;;;18.30;11.52;;;;;;;16.49;50.95;101024.41;4997947;28;20041;-88
2022/12/07 07:26:48;;;;;;;;;;;;;;;17.47;48.29;101036.44;4968420;28;20045;-87
2022/12/07 07:29:14;;;;;;;28.33;13.68;;;;;;;17.02;48.78;101013.25;5012116;28;19916;-87
2022/12/07 07:31:45;;;;;;;19.67;11.70;;;;;;;18.01;46.86;101034.13;5001223;28;20135;-89
2022/12/07 07:34:11;;;;;;;26.77;13.18;;;;;;;19.47;43.56;101025.50;5013398;28;20029;-88
2022/12/07 07:36:38;;;;;;;20.63;11.68;;;;;;;19.23;42.92;101002.44;4979128;28;20128;-89
2022/12/07 07:39:04;;;;;;;31.92;13.27;;;;;;;20.00;40.73;100990.78;4995532;28;20029;-87
2022/12/07 07:41:30;;;;;;;25.33;16.30;;;;;;;20.90;38.74;101000.03;5008572;28;20056;-86
2022/12/07 07:43:57;;;;;;;17.40;10.93;;;;;;;21.90;37.05;101016.41;4978201;28;20070;-88
2022/12/07 07:46:23;;;;;;;18.90;10.45;;;;;;;22.72;35.14;101010.56;4980584;28;20109;-90
2022/12/07 07:48:50;;;;;;;18.88;10.40;;;;;;;22.71;34.27;100990.53;4988331;28;20038;-88
2022/12/07 07:51:17;;;;;;;16.73;9.45;;;;;;;23.39;33.10;101002.97;4993984;28;20041;-87
2022/12/07 07:53:48;;;;;;;14.00;10.13;;;;;;;23.19;32.71;100994.25;4976535;28;20030;-90
2022/12/07 07:56:16;;;;;;;14.27;10.27;;;;;;;23.22;32.79;100980.06;4979673;28;20137;-93
2022/12/07 07:58:53;;;;;;;19.38;9.88;;;;;;;23.58;32.83;101022.09;4951225;28;20039;-90
2022/12/07 08:01:19;;;;;;;19.83;8.77;;;;;;;23.44;31.59;100985.81;4992316;28;20126;-89
2022/12/07 08:03:47;;;;;;;13.32;9.02;;;;;;;23.92;30.84;101011.34;4991631;28;20037;-86
2022/12/07 08:06:12;;;;;;;17.55;9.20;;;;;;;24.55;30.56;101004.97;4987819;28;20038;-87
2022/12/07 08:08:38;;;;;;;16.95;8.98;;;;;;;24.65;30.33;101015.31;4989364;28;20049;-87
2022/12/07 08:11:09;;;;;;;16.58;8.85;;;;;;;25.01;29.53;101019.56;5008551;28;20066;-87
2022/12/07 08:13:36;;;;;;;15.07;9.45;;;;;;;25.09;29.41;101023.81;5013424;28;20034;-89
2022/12/07 08:16:10;;;;;;;17.15;8.73;;;;;;;24.96;29.72;101021.38;5013262;28;20030;-93
2022/12/07 08:18:38;;;;;;;15.57;9.15;;;;;;;24.71;29.27;100980.53;4988005;28;20379;-88
2022/12/07 08:21:04;;;;;;;15.25;9.10;;;;;;;24.69;29.05;101000.00;4964701;28;20030;-87
2022/12/07 08:23:31;;;;;;;15.02;8.93;;;;;;;24.33;30.35;101028.69;4970435;28;20045;-86
2022/12/07 08:26:04;;;;;;;16.80;8.07;;;;;;;24.43;29.62;101017.91;4985522;28;20086;-89
2022/12/07 08:28:31;;;;;;;17.75;9.13;;;;;;;24.97;29.21;101001.88;4991236;28;20510;-90
2022/12/07 08:31:03;;;;;;;19.33;9.43;;;;;;;24.71;29.06;100975.84;5008247;28;20033;-91
2022/12/07 08:33:31;;;;;;;12.65;8.30;;;;;;;25.31;28.22;101003.84;4955623;28;20038;-89
2022/12/07 08:36:01;;;;;;;16.83;8.48;;;;;;;26.07;27.05;100979.34;5000483;28;20120;-89
2022/12/07 08:38:30;;;;;;;14.73;8.20;;;;;;;26.53;26.42;100977.97;4989415;28;20143;-88
2022/12/07 08:40:58;;;;;;;10.60;7.43;;;;;;;26.33;26.20;100997.84;4991089;28;20248;-88
2022/12/07 08:43:23;;;;;;;10.35;7.28;;;;;;;26.60;25.95;100993.47;4967768;28;20105;-90
2022/12/07 08:46:10;;;;;;;14.82;7.65;;;;;;;27.41;25.11;100968.53;4977325;28;20034;-90
2022/12/07 08:48:49;;;;;;;10.55;6.68;;;;;;;26.94;25.20;100983.06;5009244;28;20699;-87
2022/12/07 08:51:16;;;;;;;10.27;6.53;;;;;;;26.54;25.61;100987.09;4989563;28;20038;-86
2022/12/07 08:53:42;;;;;;;9.50;6.40;;;;;;;26.30;26.69;100986.53;5011071;28;20034;-85
2022/12/07 08:56:10;;;;;;;9.57;6.55;;;;;;;25.98;26.87;100978.13;4999160;28;20104;-87
2022/12/07 08:58:36;;;;;;;8.80;6.05;;;;;;;25.89;26.59;100975.84;5005993;28;20047;-92
2022/12/07 09:01:02;;;;;;;10.15;6.35;;;;;;;24.87;28.28;100957.72;5010371;28;20029;-88
2022/12/07 09:03:36;;;;;;;10.13;6.38;;;;;;;25.09;28.10;100973.47;4997276;28;20022;-91
2022/12/07 09:06:03;;;;;;;15.90;6.50;;;;;;;24.64;28.29;100947.69;5006853;28;20034;-89
2022/12/07 09:08:51;;;;;;;8.45;5.75;;;;;;;25.41;27.39;100988.31;4993450;28;20410;-90
2022/12/07 09:11:20;;;;;;;10.82;6.03;;;;;;;25.33;27.50;100980.47;4993823;28;20065;-90
2022/12/07 09:13:46;;;;;;;12.75;6.40;;;;;;;25.43;28.15;100972.41;5003389;28;20122;-88
2022/12/07 09:16:13;;;;;;;10.00;6.07;;;;;;;25.19;27.53;100965.41;4986013;28;20076;-88
2022/12/07 09:18:38;;;;;;;10.88;6.13;;;;;;;24.86;28.31;100978.03;4993779;28;20038;-86
2022/12/07 09:21:05;;;;;;;9.65;6.95;;;;;;;24.14;29.69;100954.69;4980473;28;20053;-90
2022/12/07 09:23:30;;;;;;;8.98;6.55;;;;;;;24.17;28.92;100937.72;5007122;28;20069;-88
2022/12/07 09:26:00;;;;;;;19.67;9.60;;;;;;;24.87;28.93;100921.97;4982752;28;20402;-90
2022/12/07 09:28:26;;;;;;;11.13;6.90;;;;;;;24.53;28.74;100945.84;4983142;28;20168;-92
2022/12/07 09:30:53;;;;;;;15.98;7.72;;;;;;;24.80;28.62;100932.31;4980636;28;20117;-91
2022/12/07 09:33:25;;;;;;;11.57;6.95;;;;;;;24.31;29.07;100912.72;4993605;28;20378;-93
2022/12/07 09:36:06;;;;;;;10.70;6.95;;;;;;;24.50;28.47;100902.38;5022165;28;20137;-94
2022/12/07 09:39:04;;;;;;;13.73;7.20;;;;;;;24.90;28.06;100943.47;5007944;28;20029;-93
2022/12/07 09:41:51;;;;;;;17.00;7.35;;;;;;;24.83;29.48;100901.53;4994948;28;20038;-92
2022/12/07 09:44:40;;;;;;;19.98;8.20;;;;;;;25.20;28.99;100912.06;5001628;28;20069;-88
2022/12/07 09:47:05;;;;;;;13.43;7.03;;;;;;;25.81;28.01;100934.94;4995658;28;20050;-91
2022/12/07 09:49:34;;;;;;;14.52;7.50;;;;;;;24.97;28.56;100938.63;4967582;28;20148;-92
2022/12/07 09:52:05;;;;;;;13.70;7.97;;;;;;;24.08;29.48;100922.69;5012245;28;20044;-90
2022/12/07 09:54:31;;;;;;;13.65;7.72;;;;;;;22.59;31.58;100909.38;5021115;28;20036;-93
2022/12/07 09:57:03;;;;;;;13.95;8.73;;;;;;;21.70;33.68;100898.94;5001649;28;20053;-88
2022/12/07 09:59:34;;;;;;;13.88;7.90;;;;;;;21.39;33.77;100894.44;5002749;28;20125;-88
2022/12/07 10:02:26;;;;;;;14.00;8.45;;;;;;;20.62;35.29;100889.25;4985746;28;20069;-92
2022/12/07 10:05:02;;;;;;;18.80;8.95;;;;;;;19.91;36.94;100899.31;4983859;28;20486;-94
2022/12/07 10:07:28;;;;;;;18.70;8.95;;;;;;;19.28;38.08;100894.44;4994734;28;20572;-93
2022/12/07 10:09:58;;;;;;;18.10;9.85;;;;;;;18.76;39.43;100907.91;4985563;28;20050;-93
2022/12/07 10:12:23;;;;;;;16.55;9.10;;;;;;;18.43;40.77;100882.50;4969257;28;20031;-89
2022/12/07 10:15:02;;;;;;;;;;;;;;;18.48;40.87;100920.84;4995152;28;20105;-89
2022/12/07 10:17:47;;;;;;;14.88;8.15;;;;;;;17.86;42.01;100893.66;4982965;28;19971;-89
2022/12/07 10:20:22;;;;;;;14.52;8.38;;;;;;;17.54;43.37;100921.50;4983773;28;20034;-90
2022/12/07 10:23:05;;;;;;;15.77;7.97;;;;;;;16.76;45.30;100899.78;4999477;28;20395;-91
2022/12/07 10:25:35;;;;;;;15.60;8.07;;;;;;;16.79;45.39;100885.88;4992792;28;20040;-88
2022/12/07 10:28:07;;;;;;;23.00;13.60;;;;;;;16.78;45.57;100908.56;4978892;28;20046;-90
2022/12/07 10:31:01;;;;;;;13.48;7.95;;;;;;;16.68;45.47;100906.19;4994750;28;20069;-91
2022/12/07 10:34:00;;;;;;;16.25;8.77;;;;;;;16.51;47.41;100916.50;4970043;28;20102;-90
2022/12/07 10:36:40;;;;;;;11.25;7.22;;;;;;;15.87;48.50;100870.28;4961840;28;20034;-91
2022/12/07 10:39:14;;;;;;;13.38;8.13;;;;;;;15.68;49.06;100863.56;4976939;28;20172;-93
2022/12/07 10:42:05;;;;;;;16.90;8.32;;;;;;;15.68;49.76;100902.34;4962579;28;20422;-91
2022/12/07 10:44:33;;;;;;;12.63;8.30;;;;;;;15.47;50.53;100892.28;4998824;28;20038;-90
2022/12/07 10:47:07;;;;;;;17.13;9.02;;;;;;;15.11;51.19;100901.13;4986121;28;20034;-91
2022/12/07 10:49:35;;;;;;;16.50;8.95;;;;;;;15.05;51.48;100903.75;4993704;28;20061;-89
2022/12/07 10:52:12;;;;;;;15.18;8.68;;;;;;;15.02;51.52;100904.13;4994476;28;20037;-91
2022/12/07 10:54:48;;;;;;;15.07;9.23;;;;;;;14.98;52.21;100890.09;4995946;28;20219;-89
2022/12/07 10:57:16;;;;;;;13.00;8.88;;;;;;;15.17;51.57;100892.28;5010010;28;20061;-90
2022/12/07 11:00:01;;;;;;;12.30;8.07;;;;;;;15.24;51.55;100850.91;5015824;28;20040;-89
2022/12/07 11:02:38;;;;;;;16.60;8.82;;;;;;;15.13;51.67;100882.00;4993124;28;20033;-89
2022/12/07 11:05:29;;;;;;;12.73;8.55;;;;;;;15.44;50.86;100889.13;5007801;28;20046;-89
2022/12/07 11:08:30;;;;;;;16.52;9.40;;;;;;;15.87;49.99;100876.56;4996694;28;20463;-90
2022/12/07 11:11:01;;;;;;;15.70;9.50;;;;;;;15.91;49.77;100880.56;5007241;28;20045;-88
2022/12/07 11:13:49;;;;;;;14.40;8.90;;;;;;;15.94;48.71;100865.78;5003274;28;20030;-89
2022/12/07 11:16:26;;;;;;;15.80;9.45;;;;;;;16.00;48.49;100873.16;4995864;28;20467;-89
2022/12/07 11:19:18;;;;;;;17.08;9.88;;;;;;;15.81;48.26;100837.50;4990461;28;20022;-85
2022/12/07 11:21:55;;;;;;;16.33;10.25;;;;;;;15.38;48.71;100804.84;5007579;28;20030;-87
2022/12/07 11:24:29;;;;;;;17.20;9.23;;;;;;;15.77;48.51;100857.88;4994275;28;20030;-88
2022/12/07 11:27:22;;;;;;;16.67;10.63;;;;;;;15.72;48.87;100852.19;4987674;28;20040;-87
2022/12/07 11:30:03;;;;;;;23.13;10.02;;;;;;;15.62;50.32;100846.22;4986205;28;20030;-87
2022/12/07 11:32:44;;;;;;;14.65;8.35;;;;;;;16.21;50.09;100858.78;4991036;28;20129;-90
2022/12/07 11:35:25;;;;;;;11.13;7.95;;;;;;;16.17;50.26;100852.91;5007118;28;20457;-86
2022/12/07 11:38:13;;;;;;;15.43;8.00;;;;;;;16.20;48.89;100847.09;5001854;28;20056;-88
2022/12/07 11:41:15;;;;;;;15.88;8.15;;;;;;;16.16;49.77;100801.56;5002202;28;20100;-86
2022/12/07 11:43:59;;;;;;;16.40;7.97;;;;;;;16.30;49.45;100844.06;4977330;28;20034;-88
2022/12/07 11:46:39;;;;;;;19.10;8.40;;;;;;;16.27;49.82;100824.59;4998926;28;20034;-87
2022/12/07 11:49:44;;;;;;;12.77;8.55;;;;;;;16.59;49.81;100828.66;5014073;28;20041;-88